Time;durP1;ratioP1;P1;durP2;ratioP2;P2;SDS_P1;SDS_P2;PMS_P1;PMS_P2;Temp;Humidity;BMP_temperature;BMP_pressure;BME280_temperature;BME280_humidity;BME280_pressure;Samples;Min_cycle;Max_cycle;Signal;HPM_P1;HPM_P2
2021/12/03 00:01:24;;;;;;;7.43;4.00;;;2.10;99.90;;;;;;4974398;28;20114;-68
2021/12/03 00:03:51;;;;;;;7.40;3.72;;;2.00;99.90;;;;;;4968570;28;20030;-66
2021/12/03 00:06:17;;;;;;;6.05;3.05;;;2.00;99.90;;;;;;4968085;28;20027;-67
2021/12/03 00:08:43;;;;;;;6.65;3.70;;;1.90;99.90;;;;;;4974616;28;20045;-65
2021/12/03 00:11:11;;;;;;;5.47;3.22;;;1.80;99.90;;;;;;4986411;28;20027;-67
2021/12/03 00:13:37;;;;;;;6.65;3.45;;;1.80;99.90;;;;;;4970075;28;20038;-67
2021/12/03 00:16:04;;;;;;;8.90;4.57;;;1.80;99.90;;;;;;4974127;28;20092;-68
2021/12/03 00:18:32;;;;;;;6.53;3.78;;;1.70;99.90;;;;;;4975608;28;20031;-67
2021/12/03 00:21:03;;;;;;;6.03;3.70;;;1.70;99.90;;;;;;4968785;28;20037;-70
2021/12/03 00:23:30;;;;;;;7.60;4.25;;;1.70;99.90;;;;;;4972252;28;20423;-70
2021/12/03 00:26:00;;;;;;;7.60;3.92;;;1.60;99.90;;;;;;4973063;28;20055;-70
2021/12/03 00:28:28;;;;;;;7.88;3.92;;;1.60;99.90;;;;;;4977217;28;20051;-70
2021/12/03 00:30:54;;;;;;;6.90;3.58;;;1.50;99.90;;;;;;4996873;23;20161;-74
2021/12/03 00:33:19;;;;;;;9.38;3.67;;;1.50;99.90;;;;;;4972207;28;20018;-73
2021/12/03 00:35:45;;;;;;;7.68;3.72;;;1.50;99.90;;;;;;4966427;28;20463;-73
2021/12/03 00:38:11;;;;;;;8.00;4.15;;;1.40;99.90;;;;;;4970980;28;20139;-74
2021/12/03 00:40:39;;;;;;;7.55;4.00;;;1.40;99.90;;;;;;4967017;28;20454;-73
2021/12/03 00:43:06;;;;;;;7.20;4.07;;;1.40;99.90;;;;;;4968507;28;20098;-73
2021/12/03 00:45:32;;;;;;;6.25;3.85;;;1.40;99.90;;;;;;4969075;28;20027;-74
2021/12/03 00:47:59;;;;;;;7.57;4.07;;;1.40;99.90;;;;;;4968804;28;20023;-74
2021/12/03 00:50:25;;;;;;;8.68;4.05;;;1.40;99.90;;;;;;4968466;28;20022;-73
2021/12/03 00:52:52;;;;;;;7.70;4.05;;;1.40;99.90;;;;;;4968822;28;20074;-74
2021/12/03 00:55:20;;;;;;;6.55;3.70;;;1.40;99.90;;;;;;4965665;28;20491;-73
2021/12/03 00:57:46;;;;;;;9.68;4.10;;;1.50;99.90;;;;;;4967508;28;20035;-73
2021/12/03 01:00:22;;;;;;;9.02;3.83;;;1.50;99.90;;;;;;4983434;28;20496;-73
2021/12/03 01:02:50;;;;;;;8.68;4.07;;;1.50;99.90;;;;;;4958873;28;20038;-74
2021/12/03 01:05:16;;;;;;;9.82;4.53;;;1.50;99.90;;;;;;4964529;28;20118;-74
2021/12/03 01:07:42;;;;;;;7.65;3.63;;;1.50;99.90;;;;;;4966955;28;20389;-74
2021/12/03 01:10:09;;;;;;;8.02;4.45;;;1.50;99.90;;;;;;4968445;28;20110;-74
2021/12/03 01:12:36;;;;;;;7.47;4.00;;;1.50;99.90;;;;;;4966614;28;20065;-74
2021/12/03 01:15:06;;;;;;;7.30;4.22;;;1.50;99.90;;;;;;4971034;28;20110;-73
2021/12/03 01:17:31;;;;;;;7.22;3.92;;;1.60;99.90;;;;;;4969393;28;20035;-74
2021/12/03 01:19:59;;;;;;;9.32;4.07;;;1.60;99.90;;;;;;4969192;28;20026;-73
2021/12/03 01:22:25;;;;;;;6.22;3.47;;;1.60;99.90;;;;;;4967955;28;20110;-73
2021/12/03 01:24:51;;;;;;;7.40;4.20;;;1.60;99.90;;;;;;4975158;28;20103;-74
2021/12/03 01:27:17;;;;;;;5.63;3.45;;;1.60;99.90;;;;;;4970720;28;20471;-74
2021/12/03 01:29:42;;;;;;;5.63;3.78;;;1.60;99.90;;;;;;4971647;28;20165;-73
2021/12/03 01:32:08;;;;;;;6.43;3.47;;;1.60;99.90;;;;;;4969916;28;20542;-73
2021/12/03 01:34:34;;;;;;;7.78;4.35;;;1.60;99.90;;;;;;4968171;28;20030;-73
2021/12/03 01:37:00;;;;;;;6.93;3.50;;;1.60;99.90;;;;;;4973025;28;20028;-72
2021/12/03 01:39:25;;;;;;;7.65;3.72;;;1.60;99.90;;;;;;4975119;28;20034;-73
2021/12/03 01:41:51;;;;;;;7.95;3.28;;;1.60;99.90;;;;;;4966829;28;20495;-73
2021/12/03 01:44:17;;;;;;;5.07;3.08;;;1.60;99.90;;;;;;4970869;28;20382;-73
2021/12/03 01:46:43;;;;;;;5.82;2.58;;;1.60;99.90;;;;;;4965655;28;20034;-73
2021/12/03 01:49:12;;;;;;;4.38;2.90;;;1.70;99.90;;;;;;4972142;28;20340;-74
2021/12/03 01:51:38;;;;;;;6.72;3.20;;;1.70;99.90;;;;;;4972218;28;20035;-74
2021/12/03 01:54:04;;;;;;;7.95;3.88;;;1.80;99.90;;;;;;4968615;28;20061;-74
2021/12/03 01:56:29;;;;;;;5.47;3.13;;;1.80;99.90;;;;;;4967117;28;20026;-72
2021/12/03 01:58:55;;;;;;;5.22;2.80;;;1.80;99.90;;;;;;4970474;28;20614;-72
2021/12/03 02:01:24;;;;;;;4.90;2.80;;;1.80;99.90;;;;;;4969567;28;20039;-72
2021/12/03 02:03:54;;;;;;;7.18;3.50;;;1.80;99.90;;;;;;4986023;28;20052;-73
2021/12/03 02:06:21;;;;;;;6.40;3.47;;;1.80;99.90;;;;;;4960161;28;20027;-73
2021/12/03 02:08:47;;;;;;;6.25;3.03;;;1.80;99.90;;;;;;4969894;28;20547;-72
2021/12/03 02:11:14;;;;;;;5.68;3.33;;;1.80;99.90;;;;;;4973834;28;20106;-73
2021/12/03 02:13:40;;;;;;;7.95;3.67;;;1.70;99.90;;;;;;4970465;28;20027;-73
2021/12/03 02:16:07;;;;;;;5.30;3.08;;;1.70;99.90;;;;;;4973126;28;20394;-72
2021/12/03 02:18:32;;;;;;;7.43;3.28;;;1.70;99.90;;;;;;4973200;28;20065;-74
2021/12/03 02:21:00;;;;;;;5.70;3.50;;;1.70;99.90;;;;;;4973023;28;20054;-72
2021/12/03 02:23:28;;;;;;;6.05;2.97;;;1.70;99.90;;;;;;4971057;28;20042;-72
2021/12/03 02:25:55;;;;;;;6.13;3.38;;;1.70;99.90;;;;;;4972203;28;20073;-72
2021/12/03 02:28:23;;;;;;;5.22;2.50;;;1.70;99.90;;;;;;4973389;28;20027;-72
2021/12/03 02:30:49;;;;;;;5.53;3.28;;;1.70;99.90;;;;;;4972293;28;20037;-73
2021/12/03 02:33:16;;;;;;;7.43;3.38;;;1.60;99.90;;;;;;4970732;28;20487;-73
2021/12/03 02:35:43;;;;;;;4.90;3.30;;;1.60;99.90;;;;;;4971594;28;20042;-73
2021/12/03 02:38:12;;;;;;;7.38;3.67;;;1.60;99.90;;;;;;4966483;28;20019;-75
2021/12/03 02:40:38;;;;;;;6.65;3.50;;;1.50;99.90;;;;;;4968882;28;20022;-74
2021/12/03 02:43:04;;;;;;;7.55;3.35;;;1.50;99.90;;;;;;4975282;28;20035;-73
2021/12/03 02:45:30;;;;;;;6.97;3.25;;;1.40;99.90;;;;;;4968721;28;20129;-74
2021/12/03 02:47:59;;;;;;;5.60;3.67;;;1.30;99.90;;;;;;4974727;28;20084;-73
2021/12/03 02:50:25;;;;;;;7.40;3.88;;;1.30;99.90;;;;;;4973655;28;20030;-73
2021/12/03 02:52:51;;;;;;;5.43;3.58;;;1.30;99.90;;;;;;4974386;28;20403;-73
2021/12/03 02:55:17;;;;;;;5.13;3.45;;;1.20;99.90;;;;;;4971483;28;20394;-72
2021/12/03 02:57:43;;;;;;;6.32;3.53;;;1.20;99.90;;;;;;4966996;28;20026;-74
2021/12/03 03:00:13;;;;;;;6.38;3.80;;;1.10;99.90;;;;;;4967210;28;20511;-72
2021/12/03 03:02:40;;;;;;;5.25;3.58;;;1.10;99.90;;;;;;4972817;28;20027;-71
2021/12/03 03:05:08;;;;;;;7.07;3.83;;;1.10;99.90;;;;;;4971113;28;20023;-71
2021/12/03 03:07:34;;;;;;;7.28;4.13;;;1.00;99.90;;;;;;4968836;28;20026;-72
2021/12/03 03:10:00;;;;;;;8.55;4.18;;;1.00;99.90;;;;;;4972838;28;20101;-72
2021/12/03 03:12:25;;;;;;;8.07;4.35;;;1.00;99.90;;;;;;4974255;28;20058;-72
2021/12/03 03:14:55;;;;;;;9.45;4.13;;;0.90;99.90;;;;;;4974588;28;20513;-72
2021/12/03 03:17:28;;;;;;;6.03;3.65;;;0.80;99.90;;;;;;4970883;28;20049;-72
2021/12/03 03:19:55;;;;;;;7.18;4.13;;;0.80;99.90;;;;;;4970073;28;20073;-72
2021/12/03 03:22:22;;;;;;;6.00;3.60;;;0.70;99.90;;;;;;4972602;28;20026;-72
2021/12/03 03:24:50;;;;;;;7.60;4.57;;;0.70;99.90;;;;;;4972019;28;20145;-72
2021/12/03 03:27:17;;;;;;;9.20;4.15;;;0.60;99.90;;;;;;4973226;28;20379;-72
2021/12/03 03:29:44;;;;;;;7.65;4.28;;;0.60;99.90;;;;;;4974057;28;20483;-73
2021/12/03 03:32:10;;;;;;;7.07;4.10;;;0.50;99.90;;;;;;4970490;28;20027;-72
2021/12/03 03:34:37;;;;;;;6.53;4.03;;;0.50;99.90;;;;;;4971580;28;20031;-73
2021/12/03 03:37:03;;;;;;;7.82;4.53;;;0.50;99.90;;;;;;4970842;28;20039;-73
2021/12/03 03:39:30;;;;;;;7.90;4.13;;;0.40;99.90;;;;;;4971438;28;20061;-74
2021/12/03 03:41:55;;;;;;;8.07;4.82;;;0.40;99.90;;;;;;4968416;28;20034;-75
2021/12/03 03:44:22;;;;;;;7.25;4.20;;;0.40;99.90;;;;;;4970435;28;20106;-73
2021/12/03 03:46:51;;;;;;;8.18;4.28;;;0.40;99.90;;;;;;4969791;28;20038;-76
2021/12/03 03:49:17;;;;;;;7.32;4.40;;;0.40;99.90;;;;;;4973198;28;20050;-74
2021/12/03 03:51:43;;;;;;;9.77;5.43;;;0.40;99.90;;;;;;4971739;28;20114;-73
2021/12/03 03:54:09;;;;;;;9.10;4.50;;;0.30;99.90;;;;;;4975070;28;20102;-74
2021/12/03 03:56:35;;;;;;;11.27;5.18;;;0.30;99.90;;;;;;4965379;28;20038;-73
2021/12/03 03:59:01;;;;;;;7.70;3.95;;;0.30;99.90;;;;;;4972853;28;20317;-74
2021/12/03 04:01:27;;;;;;;8.82;4.47;;;0.30;99.90;;;;;;4972722;28;20526;-74
2021/12/03 04:03:52;;;;;;;7.80;4.35;;;0.30;99.90;;;;;;4969991;28;20034;-74
2021/12/03 04:06:19;;;;;;;9.23;4.65;;;0.30;99.90;;;;;;4971256;28;20102;-73
2021/12/03 04:08:46;;;;;;;8.75;4.22;;;0.30;99.90;;;;;;4972727;28;20018;-74
2021/12/03 04:11:14;;;;;;;6.88;4.38;;;0.30;99.90;;;;;;4971296;28;20038;-73
2021/12/03 04:13:40;;;;;;;8.48;4.72;;;0.30;99.90;;;;;;4979081;28;20023;-73
2021/12/03 04:16:06;;;;;;;8.48;4.15;;;0.30;99.90;;;;;;4971045;28;20031;-74
2021/12/03 04:18:32;;;;;;;6.97;3.92;;;0.40;99.90;;;;;;4965761;28;20190;-73
2021/12/03 04:20:57;;;;;;;7.03;3.97;;;0.50;99.90;;;;;;4973816;28;20494;-73
2021/12/03 04:23:24;;;;;;;8.30;4.38;;;0.50;99.90;;;;;;4972877;28;20026;-74
2021/12/03 04:25:51;;;;;;;7.63;4.18;;;0.60;99.90;;;;;;4974552;28;20152;-75
2021/12/03 04:28:18;;;;;;;8.23;3.95;;;0.50;99.90;;;;;;4972387;28;20023;-74
2021/12/03 04:30:46;;;;;;;7.63;3.65;;;0.60;99.90;;;;;;4975033;28;20035;-74
2021/12/03 04:33:12;;;;;;;6.50;3.85;;;0.60;99.90;;;;;;4974124;28;20023;-74
2021/12/03 04:35:38;;;;;;;7.47;4.25;;;0.60;99.90;;;;;;4973874;28;20109;-75
2021/12/03 04:38:05;;;;;;;8.57;4.90;;;0.60;99.90;;;;;;4969723;28;20093;-74
2021/12/03 04:40:33;;;;;;;8.75;4.28;;;0.70;99.90;;;;;;4970392;28;20056;-74
2021/12/03 04:42:59;;;;;;;7.28;3.42;;;0.70;99.90;;;;;;4974760;28;20035;-74
2021/12/03 04:45:26;;;;;;;12.65;4.20;;;0.80;99.90;;;;;;4973922;28;20023;-74
2021/12/03 04:47:53;;;;;;;7.43;4.40;;;0.70;99.90;;;;;;4965135;28;20026;-74
2021/12/03 04:50:21;;;;;;;9.57;3.70;;;0.80;99.90;;;;;;4973325;28;20031;-74
2021/12/03 04:52:48;;;;;;;7.93;4.57;;;0.80;99.90;;;;;;4972078;28;20057;-73
2021/12/03 04:55:14;;;;;;;4.75;3.08;;;0.70;99.90;;;;;;4971361;28;20035;-73
2021/12/03 04:57:40;;;;;;;10.13;4.60;;;0.80;99.90;;;;;;4972694;28;20498;-73
2021/12/03 05:00:12;;;;;;;9.70;4.05;;;0.80;99.90;;;;;;4966354;28;20489;-73
2021/12/03 05:02:37;;;;;;;8.23;4.65;;;0.80;99.90;;;;;;4973652;28;20100;-74
2021/12/03 05:05:05;;;;;;;7.38;4.00;;;0.90;99.90;;;;;;4967466;28;20142;-73
2021/12/03 05:10:08;;;;;;;7.20;3.70;;;0.90;99.90;;;;;;4975146;28;20031;-73
2021/12/03 05:12:34;;;;;;;8.00;3.88;;;0.90;99.90;;;;;;4972105;28;20459;-74
2021/12/03 05:15:00;;;;;;;7.30;4.10;;;0.80;99.90;;;;;;4971773;28;20336;-73
2021/12/03 05:17:26;;;;;;;8.50;3.95;;;0.80;99.90;;;;;;4976621;28;20027;-73
2021/12/03 05:19:52;;;;;;;5.78;3.35;;;0.80;99.90;;;;;;4965135;28;20142;-73
2021/12/03 05:22:18;;;;;;;8.15;4.10;;;0.80;99.90;;;;;;4969298;28;20121;-72
2021/12/03 05:24:47;;;;;;;6.35;3.85;;;0.80;99.90;;;;;;4977310;28;20027;-73
2021/12/03 05:27:18;;;;;;;10.95;4.57;;;0.70;99.90;;;;;;4973441;28;20023;-72
2021/12/03 05:29:45;;;;;;;8.68;3.58;;;0.80;99.90;;;;;;4969142;28;20043;-72
2021/12/03 05:32:11;;;;;;;6.88;4.07;;;0.70;99.90;;;;;;4967764;28;20035;-72
2021/12/03 05:34:38;;;;;;;8.27;4.40;;;0.70;99.90;;;;;;4981976;28;20036;-72
2021/12/03 05:37:06;;;;;;;6.82;4.47;;;0.70;99.90;;;;;;4968855;28;20042;-73
2021/12/03 05:39:33;;;;;;;7.15;4.18;;;0.70;99.90;;;;;;4968661;28;20058;-72
2021/12/03 05:41:59;;;;;;;12.07;4.05;;;0.70;99.90;;;;;;4970481;28;20064;-72
2021/12/03 05:44:24;;;;;;;7.53;4.38;;;0.60;99.90;;;;;;4967202;28;20069;-72
2021/12/03 05:46:50;;;;;;;6.65;3.80;;;0.60;99.90;;;;;;4982427;28;20114;-72
2021/12/03 05:49:16;;;;;;;7.07;3.60;;;0.50;99.90;;;;;;4966331;28;20530;-72
2021/12/03 05:51:43;;;;;;;9.85;4.60;;;0.50;99.90;;;;;;4973666;28;20041;-72
2021/12/03 05:54:09;;;;;;;10.23;5.18;;;0.50;99.90;;;;;;4974404;28;20025;-65
2021/12/03 05:56:35;;;;;;;7.57;4.20;;;0.50;99.90;;;;;;4972575;28;20031;-65
2021/12/03 05:59:02;;;;;;;9.32;4.47;;;0.60;99.90;;;;;;4974579;28;20050;-71
2021/12/03 06:01:28;;;;;;;7.70;4.18;;;0.70;99.90;;;;;;4973944;28;20106;-73
2021/12/03 06:03:54;;;;;;;9.60;4.45;;;0.70;99.90;;;;;;4968089;28;20131;-72
2021/12/03 06:06:21;;;;;;;8.13;4.20;;;0.70;99.90;;;;;;4984459;28;20553;-74
2021/12/03 06:08:46;;;;;;;7.90;4.40;;;0.70;99.90;;;;;;4972823;28;20046;-72
2021/12/03 06:11:12;;;;;;;8.25;4.03;;;0.70;99.90;;;;;;4972433;28;20436;-73
2021/12/03 06:13:41;;;;;;;6.25;3.65;;;0.70;99.90;;;;;;4969065;28;20430;-73
2021/12/03 06:16:08;;;;;;;9.25;4.38;;;0.70;99.90;;;;;;4974835;28;20050;-72
2021/12/03 06:18:35;;;;;;;8.80;4.05;;;0.70;99.90;;;;;;4985485;28;20023;-73
2021/12/03 06:21:02;;;;;;;6.85;3.90;;;0.60;99.90;;;;;;4966115;28;20499;-72
2021/12/03 06:23:28;;;;;;;8.23;4.15;;;0.70;99.90;;;;;;4972521;28;20106;-72
2021/12/03 06:25:55;;;;;;;7.03;3.83;;;0.70;99.90;;;;;;4973276;28;20077;-73
2021/12/03 06:28:20;;;;;;;11.18;5.13;;;0.70;99.90;;;;;;4975812;28;20061;-72
2021/12/03 06:30:46;;;;;;;6.68;3.47;;;0.70;99.90;;;;;;4997567;23;20473;-74
2021/12/03 06:33:12;;;;;;;8.68;4.10;;;0.70;99.90;;;;;;4984193;28;20117;-75
2021/12/03 06:35:37;;;;;;;7.40;4.18;;;0.70;99.90;;;;;;4985245;28;20038;-75
2021/12/03 06:38:03;;;;;;;9.30;4.03;;;0.60;99.90;;;;;;4980327;28;20066;-76
2021/12/03 06:40:29;;;;;;;9.18;4.55;;;0.70;99.90;;;;;;4981676;28;20126;-76
2021/12/03 06:42:55;;;;;;;8.93;4.57;;;0.60;99.90;;;;;;4990509;28;20027;-76
2021/12/03 06:45:22;;;;;;;8.23;4.15;;;0.60;99.90;;;;;;4986270;28;20077;-76
2021/12/03 06:47:48;;;;;;;9.23;4.25;;;0.60;99.90;;;;;;4983820;28;20037;-75
2021/12/03 06:50:17;;;;;;;7.75;3.97;;;0.60;99.90;;;;;;4976536;28;20491;-76
2021/12/03 06:52:46;;;;;;;8.73;4.78;;;0.60;99.90;;;;;;4982757;28;20046;-75
2021/12/03 06:55:14;;;;;;;7.47;4.00;;;0.60;99.90;;;;;;4985378;28;20037;-76
2021/12/03 06:57:43;;;;;;;7.75;3.90;;;0.60;99.90;;;;;;4983017;28;20026;-76
2021/12/03 07:00:09;;;;;;;8.40;4.07;;;0.60;99.90;;;;;;4982406;28;20102;-76
2021/12/03 07:02:35;;;;;;;9.75;4.93;;;0.60;99.90;;;;;;4985917;28;20027;-76
2021/12/03 07:05:04;;;;;;;11.65;5.10;;;0.60;99.90;;;;;;4988623;28;20805;-76
2021/12/03 07:07:29;;;;;;;8.85;4.20;;;0.50;99.90;;;;;;4979584;28;20186;-75
2021/12/03 07:09:56;;;;;;;11.00;4.65;;;0.40;99.90;;;;;;4981054;28;20661;-76
2021/12/03 07:12:22;;;;;;;6.80;3.90;;;0.40;99.90;;;;;;4982178;28;20029;-76
2021/12/03 07:14:47;;;;;;;8.15;3.85;;;0.30;99.90;;;;;;4988095;28;20034;-75
2021/12/03 07:17:13;;;;;;;10.15;4.50;;;0.30;99.90;;;;;;4984371;28;20035;-75
2021/12/03 07:19:39;;;;;;;7.28;3.83;;;0.20;99.90;;;;;;4981306;28;20364;-76
2021/12/03 07:22:04;;;;;;;8.38;3.92;;;0.20;99.90;;;;;;4979071;28;20129;-75
2021/12/03 07:24:30;;;;;;;8.48;3.95;;;0.20;99.90;;;;;;4981349;28;20022;-74
2021/12/03 07:26:56;;;;;;;8.57;4.70;;;0.20;99.90;;;;;;4983284;28;20134;-74
2021/12/03 07:29:22;;;;;;;17.27;5.13;;;0.10;99.90;;;;;;4980771;28;20034;-74
2021/12/03 07:31:48;;;;;;;9.50;5.13;;;0.10;99.90;;;;;;4987235;28;20038;-74
2021/12/03 07:34:15;;;;;;;7.55;4.05;;;0.10;99.90;;;;;;4979880;28;20118;-74
2021/12/03 07:36:40;;;;;;;9.82;4.68;;;0.00;99.90;;;;;;4982819;28;20054;-74
2021/12/03 07:39:06;;;;;;;11.25;5.00;;;0.00;99.90;;;;;;4986531;28;20112;-74
2021/12/03 07:41:32;;;;;;;9.85;4.70;;;0.10;99.90;;;;;;4976029;28;20080;-74
2021/12/03 07:43:57;;;;;;;7.90;4.40;;;0.10;99.90;;;;;;4984107;28;20033;-74
2021/12/03 07:46:23;;;;;;;10.45;5.00;;;0.20;99.90;;;;;;4983884;28;20030;-74
2021/12/03 07:48:49;;;;;;;9.35;4.78;;;0.20;99.90;;;;;;4983342;28;20053;-74
2021/12/03 07:51:16;;;;;;;10.10;4.82;;;0.20;99.90;;;;;;4967844;28;20085;-74
2021/12/03 07:53:42;;;;;;;6.75;4.00;;;0.20;99.90;;;;;;4981867;28;20025;-74
2021/12/03 07:56:11;;;;;;;8.93;4.15;;;0.20;99.90;;;;;;4986474;28;20035;-74
2021/12/03 07:58:37;;;;;;;11.13;4.40;;;0.20;99.90;;;;;;4977298;28;20018;-74
2021/12/03 08:01:06;;;;;;;10.20;3.78;;;0.20;99.90;;;;;;4981565;28;20022;-74
2021/12/03 08:03:32;;;;;;;10.45;4.20;;;0.30;99.90;;;;;;4979173;28;20042;-74
2021/12/03 08:06:03;;;;;;;10.85;4.32;;;0.30;99.90;;;;;;4978215;28;20116;-74
2021/12/03 08:08:30;;;;;;;12.25;5.57;;;0.40;99.90;;;;;;4988704;28;20458;-74
2021/12/03 08:10:56;;;;;;;6.95;3.75;;;0.40;99.90;;;;;;4983499;28;20106;-74
2021/12/03 08:13:22;;;;;;;8.90;3.90;;;0.40;99.90;;;;;;4984650;28;20110;-75
2021/12/03 08:15:48;;;;;;;7.97;3.95;;;0.50;99.90;;;;;;4984169;28;20030;-74
2021/12/03 08:18:14;;;;;;;7.80;4.10;;;0.50;99.90;;;;;;4986449;28;20128;-74
2021/12/03 08:20:40;;;;;;;12.13;3.97;;;0.50;99.90;;;;;;4982456;28;20027;-74
2021/12/03 08:23:06;;;;;;;6.60;3.53;;;0.50;99.90;;;;;;4976105;28;20076;-74
2021/12/03 08:25:32;;;;;;;7.05;3.60;;;0.60;99.90;;;;;;4982447;28;20026;-74
2021/12/03 08:27:58;;;;;;;8.52;4.05;;;0.60;99.90;;;;;;4981260;28;20022;-74
2021/12/03 08:30:28;;;;;;;9.23;3.97;;;0.60;99.90;;;;;;4977605;28;20031;-74
2021/12/03 08:32:54;;;;;;;7.55;3.85;;;0.60;99.90;;;;;;4982498;28;20034;-74
2021/12/03 08:35:20;;;;;;;6.00;3.63;;;0.60;99.90;;;;;;4983412;28;20030;-74
2021/12/03 08:37:48;;;;;;;9.93;3.53;;;0.60;99.90;;;;;;4976164;28;20030;-74
2021/12/03 08:40:14;;;;;;;6.38;4.05;;;0.60;99.90;;;;;;4980743;28;20385;-74
2021/12/03 08:42:40;;;;;;;11.82;4.28;;;0.70;99.90;;;;;;4980529;28;20086;-73
2021/12/03 08:45:07;;;;;;;6.57;3.63;;;0.70;99.90;;;;;;4981936;28;20027;-74
2021/12/03 08:47:34;;;;;;;7.13;3.30;;;0.70;99.90;;;;;;4980522;28;20023;-74
2021/12/03 08:50:03;;;;;;;6.68;3.13;;;0.80;99.90;;;;;;4980072;28;20049;-74
2021/12/03 08:52:46;;;;;;;6.72;3.65;;;0.80;99.90;;;;;;4981525;28;20064;-74
2021/12/03 08:55:12;;;;;;;8.45;3.28;;;0.80;99.90;;;;;;4980965;28;20058;-74
2021/12/03 08:57:38;;;;;;;8.27;3.30;;;0.90;99.90;;;;;;4984671;28;20033;-74
2021/12/03 09:00:13;;;;;;;8.45;3.92;;;0.90;99.90;;;;;;4988550;28;20435;-74
2021/12/03 09:02:40;;;;;;;6.70;3.45;;;1.00;99.90;;;;;;4981735;28;20034;-73
2021/12/03 09:05:07;;;;;;;6.53;3.28;;;1.00;99.90;;;;;;4981196;28;20253;-74
2021/12/03 09:07:33;;;;;;;9.38;2.80;;;1.10;99.90;;;;;;4998157;28;20049;-74
2021/12/03 09:09:59;;;;;;;6.75;3.28;;;1.10;99.90;;;;;;4982397;28;20364;-74
2021/12/03 09:12:24;;;;;;;5.60;2.92;;;1.20;99.90;;;;;;4983123;28;20029;-74
2021/12/03 09:14:54;;;;;;;6.07;3.60;;;1.20;99.90;;;;;;4979639;28;20029;-74
2021/12/03 09:20:19;;;;;;;5.70;3.17;;;1.30;99.90;;;;;;4989264;23;20041;-79
2021/12/03 09:22:58;;;;;;;;;;;1.20;99.90;;;;;;4982135;28;20026;-78
2021/12/03 09:25:33;;;;;;;7.10;4.03;;;1.30;99.90;;;;;;4990131;28;20370;-79
2021/12/03 09:28:02;;;;;;;8.25;2.95;;;1.40;99.90;;;;;;4989603;28;20045;-78
2021/12/03 09:30:35;;;;;;;6.30;3.40;;;1.40;99.90;;;;;;4986855;28;20026;-80
2021/12/03 09:33:01;;;;;;;8.00;3.47;;;1.50;99.90;;;;;;4989005;28;20045;-78
2021/12/03 09:35:29;;;;;;;9.95;3.72;;;1.50;99.90;;;;;;5004338;28;20279;-79
2021/12/03 09:37:55;;;;;;;7.20;2.78;;;1.50;99.90;;;;;;4986104;28;20114;-78
2021/12/03 09:40:23;;;;;;;6.30;3.03;;;1.60;99.90;;;;;;4988311;28;20157;-78
2021/12/03 09:42:49;;;;;;;7.18;2.97;;;1.60;99.90;;;;;;4990682;28;20117;-79
2021/12/03 09:45:15;;;;;;;4.15;2.72;;;1.60;99.90;;;;;;4983250;28;20142;-79
2021/12/03 09:47:40;;;;;;;6.30;3.13;;;1.60;99.90;;;;;;4984255;28;20474;-80
2021/12/03 09:50:13;;;;;;;7.32;3.00;;;1.70;99.90;;;;;;4987331;28;20453;-80
2021/12/03 09:55:11;;;;;;;5.18;2.70;;;1.70;99.90;;;;;;4988805;28;20061;-80
2021/12/03 09:57:50;;;;;;;4.88;2.70;;;1.80;99.90;;;;;;4985652;28;20026;-80
2021/12/03 10:00:29;;;;;;;5.65;2.90;;;1.80;99.90;;;;;;4980727;28;20030;-80
2021/12/03 10:03:11;;;;;;;5.35;2.80;;;1.80;99.90;;;;;;4987357;28;20041;-81
2021/12/03 10:15:03;;;;;;;5.68;3.15;;;1.90;99.90;;;;;;4977308;28;20522;-75
2021/12/03 10:44:42;;;;;;;5.50;2.90;;;2.30;99.90;;;;;;4981041;28;20094;-78
2021/12/03 10:49:20;;;;;;;5.00;2.75;;;2.30;99.90;;;;;;4983970;28;20478;-79
2021/12/03 11:13:44;;;;;;;5.05;2.63;;;2.90;99.90;;;;;;4981574;28;20505;-79
2021/12/03 11:29:53;;;;;;;4.47;2.10;;;3.00;99.90;;;;;;4982247;28;19914;-79
2021/12/03 12:30:12;;;;;;;3.80;1.67;;;3.50;99.90;;;;;;4980470;28;20037;-82
2021/12/03 14:37:55;;;;;;;3.63;1.50;;;3.20;99.90;;;;;;4990794;28;20096;-86
2021/12/03 14:40:42;;;;;;;3.03;0.95;;;3.20;99.90;;;;;;4987367;28;20543;-88
2021/12/03 14:57:12;;;;;;;7.05;2.03;;;3.30;99.70;;;;;;4990211;28;20050;-85
2021/12/03 14:59:49;;;;;;;6.50;2.00;;;3.20;99.00;;;;;;4988357;28;20061;-86
2021/12/03 15:03:04;;;;;;;3.83;1.48;;;3.20;99.10;;;;;;4990388;28;20018;-85
2021/12/03 15:08:04;;;;;;;2.95;1.45;;;3.20;99.00;;;;;;4980802;28;20106;-87
2021/12/03 15:10:45;;;;;;;5.68;0.93;;;3.10;98.80;;;;;;4991718;28;20459;-85
2021/12/03 15:31:02;;;;;;;2.42;1.00;;;2.70;99.90;;;;;;4983871;28;20027;-70
2021/12/03 15:36:06;;;;;;;3.60;1.10;;;2.60;99.90;;;;;;4983536;28;20414;-69
2021/12/03 15:41:37;;;;;;;2.78;1.10;;;2.60;99.90;;;;;;4990966;28;20098;-70
2021/12/03 16:08:30;;;;;;;3.25;1.52;;;2.40;99.90;;;;;;4963337;28;19993;-69
2021/12/03 16:16:41;;;;;;;2.63;1.90;;;2.30;99.90;;;;;;4965398;28;20483;-69
2021/12/03 16:53:34;;;;;;;4.03;1.42;;;2.30;99.90;;;;;;4963672;28;20031;-68
2021/12/03 16:56:16;;;;;;;5.22;1.83;;;2.30;99.90;;;;;;4964328;28;20500;-68
2021/12/03 16:58:43;;;;;;;4.32;2.30;;;2.30;99.90;;;;;;4966540;28;20039;-69
2021/12/03 17:25:51;;;;;;;2.70;1.50;;;2.40;99.90;;;;;;4957035;28;19980;-70
2021/12/03 17:59:53;;;;;;;5.20;2.63;;;2.20;99.90;;;;;;4963774;28;20118;-69
2021/12/03 18:02:39;;;;;;;6.05;2.85;;;2.30;99.90;;;;;;4970205;28;20065;-70
2021/12/03 18:46:52;;;;;;;6.53;3.67;;;2.00;99.90;;;;;;4967187;28;19961;-71
2021/12/03 18:55:00;;;;;;;11.18;3.85;;;2.10;99.90;;;;;;4970946;28;20041;-70
2021/12/03 18:57:30;;;;;;;6.15;3.28;;;2.10;99.90;;;;;;4968181;28;20483;-70
2021/12/03 19:00:00;;;;;;;7.60;3.13;;;2.20;99.90;;;;;;4965829;28;20117;-71
2021/12/03 19:02:26;;;;;;;8.18;4.15;;;2.20;99.90;;;;;;4958018;28;20387;-70
2021/12/03 19:07:24;;;;;;;9.57;4.53;;;2.20;99.90;;;;;;4963975;28;20031;-71
2021/12/03 19:09:52;;;;;;;10.55;4.35;;;2.30;99.90;;;;;;4952577;28;20082;-71
2021/12/03 19:12:24;;;;;;;9.38;3.92;;;2.30;99.90;;;;;;4967450;28;20051;-70
2021/12/03 19:14:56;;;;;;;10.10;4.65;;;2.30;99.90;;;;;;4977398;28;20037;-71
2021/12/03 19:17:23;;;;;;;6.95;3.92;;;2.30;99.90;;;;;;4963523;28;20031;-70
2021/12/03 19:19:52;;;;;;;7.93;3.70;;;2.40;99.90;;;;;;4961242;28;20081;-70
2021/12/03 19:22:19;;;;;;;9.02;4.70;;;2.30;99.90;;;;;;4963754;28;20480;-70
2021/12/03 19:24:45;;;;;;;6.57;3.35;;;2.40;99.90;;;;;;4960662;28;20034;-71
2021/12/03 19:27:11;;;;;;;9.48;3.95;;;2.40;99.90;;;;;;4962625;28;20031;-70
2021/12/03 19:29:38;;;;;;;9.45;4.07;;;2.40;99.90;;;;;;4965977;28;20042;-71
2021/12/03 19:32:05;;;;;;;15.90;4.90;;;2.40;99.90;;;;;;4961803;28;20061;-71
2021/12/03 19:34:30;;;;;;;8.38;4.38;;;2.40;99.90;;;;;;4966874;28;20042;-70
2021/12/03 19:36:57;;;;;;;8.35;3.38;;;2.40;99.90;;;;;;4965248;28;20039;-73
2021/12/03 19:39:24;;;;;;;8.65;4.32;;;2.40;99.90;;;;;;4959928;28;20118;-71
2021/12/03 19:47:06;;;;;;;5.75;3.45;;;2.50;99.90;;;;;;4967617;28;20169;-71
2021/12/03 19:49:38;;;;;;;6.78;4.07;;;2.50;99.90;;;;;;4963749;28;20074;-71
2021/12/03 19:52:27;;;;;;;9.63;4.00;;;2.50;99.90;;;;;;4969347;28;20338;-70
2021/12/03 19:54:53;;;;;;;6.63;3.95;;;2.50;99.90;;;;;;4961369;28;20496;-71
2021/12/03 19:57:19;;;;;;;7.55;4.13;;;2.50;99.90;;;;;;4953154;28;20023;-71
2021/12/03 19:59:45;;;;;;;8.18;3.97;;;2.50;99.90;;;;;;4961859;28;20039;-71
2021/12/03 20:02:11;;;;;;;9.43;5.70;;;2.50;99.90;;;;;;4965645;28;23870;-70
2021/12/03 20:04:36;;;;;;;13.68;6.20;;;2.50;99.90;;;;;;4969488;28;20038;-71
2021/12/03 20:07:04;;;;;;;8.82;4.40;;;2.50;99.90;;;;;;4958126;28;20510;-71
2021/12/03 20:09:40;;;;;;;11.38;5.78;;;2.50;99.90;;;;;;4961966;28;20051;-72
2021/12/03 20:12:11;;;;;;;10.85;4.03;;;2.50;99.90;;;;;;4957370;28;20039;-71
2021/12/03 20:14:37;;;;;;;9.77;4.38;;;2.60;99.90;;;;;;4961742;28;20380;-71
2021/12/03 20:17:08;;;;;;;11.02;4.80;;;2.60;99.90;;;;;;4962148;28;20023;-70
2021/12/03 20:19:37;;;;;;;8.82;4.03;;;2.60;99.90;;;;;;4978043;28;20364;-71
2021/12/03 20:27:13;;;;;;;8.38;4.32;;;2.60;99.90;;;;;;4959359;28;20023;-71
2021/12/03 20:29:49;;;;;;;7.28;5.00;;;2.60;99.90;;;;;;4963183;28;20177;-71
2021/12/03 20:32:22;;;;;;;8.85;4.18;;;2.60;99.90;;;;;;4973880;28;20078;-71
2021/12/03 20:37:18;;;;;;;8.80;4.18;;;2.50;99.90;;;;;;4921924;28;20145;-72
2021/12/03 20:39:45;;;;;;;7.65;4.28;;;2.50;99.90;;;;;;4972068;28;20126;-72
2021/12/03 20:47:59;;;;;;;8.20;3.58;;;2.50;99.90;;;;;;4964618;28;19917;-72
2021/12/03 20:50:49;;;;;;;7.38;3.72;;;2.50;99.90;;;;;;4964406;28;20030;-71
2021/12/03 21:09:35;;;;;;;6.13;3.38;;;2.60;99.90;;;;;;4964581;28;20033;-72
2021/12/03 21:12:05;;;;;;;7.80;3.85;;;2.60;99.90;;;;;;4962295;28;20122;-71
2021/12/03 21:14:34;;;;;;;6.22;3.70;;;2.60;99.90;;;;;;4973765;28;20114;-71
2021/12/03 21:22:30;;;;;;;12.40;4.22;;;2.70;99.90;;;;;;4958109;28;20073;-72
2021/12/03 21:24:48;;;;;;;11.10;4.20;;;2.70;99.90;;;;;;4960999;28;20034;-72
2021/12/03 21:27:30;;;;;;;9.13;3.83;;;2.70;99.90;;;;;;4958374;28;20059;-72
2021/12/03 21:40:54;;;;;;;7.93;3.78;;;2.70;99.90;;;;;;4964688;28;20027;-68
2021/12/03 21:43:21;;;;;;;6.72;3.55;;;2.70;99.90;;;;;;4961101;28;20039;-67
2021/12/03 21:45:47;;;;;;;6.40;3.95;;;2.80;99.90;;;;;;4957118;28;20062;-68